Time;durP1;ratioP1;P1;durP2;ratioP2;P2;SDS_P1;SDS_P2;PMS_P1;PMS_P2;Temp;Humidity;BMP_temperature;BMP_pressure;BME280_temperature;BME280_humidity;BME280_pressure;Samples;Min_cycle;Max_cycle;Signal;HPM_P1;HPM_P2
2023/04/21 00:01:54;;;;;;;21.98;10.98;;;;;;;;;;5034853;28;20579;-78
2023/04/21 00:04:20;;;;;;;23.02;11.27;;;;;;;;;;5028191;28;20607;-77
2023/04/21 00:06:47;;;;;;;22.13;11.98;;;;;;;;;;5028859;28;20073;-78
2023/04/21 00:09:13;;;;;;;20.33;11.52;;;;;;;;;;5047232;28;20469;-77
2023/04/21 00:11:39;;;;;;;25.52;12.57;;;;;;;;;;5046366;28;20062;-78
2023/04/21 00:14:06;;;;;;;21.60;11.40;;;;;;;;;;5024818;28;20058;-78
2023/04/21 00:16:32;;;;;;;22.45;11.73;;;;;;;;;;5034718;28;20057;-78
2023/04/21 00:18:59;;;;;;;22.27;11.60;;;;;;;;;;5033226;28;20049;-77
2023/04/21 00:21:25;;;;;;;23.13;11.90;;;;;;;;;;5046657;28;20060;-78
2023/04/21 00:23:52;;;;;;;22.25;11.65;;;;;;;;;;5031784;28;20444;-77
2023/04/21 00:26:19;;;;;;;24.83;12.02;;;;;;;;;;5038936;28;20584;-77
2023/04/21 00:28:46;;;;;;;23.35;11.60;;;;;;;;;;5035208;28;20072;-77
2023/04/21 00:31:12;;;;;;;29.42;13.15;;;;;;;;;;5045647;28;20049;-79
2023/04/21 00:33:38;;;;;;;23.13;12.25;;;;;;;;;;5029015;28;20105;-77
2023/04/21 00:36:05;;;;;;;29.77;12.52;;;;;;;;;;5020573;28;20129;-78
2023/04/21 00:38:31;;;;;;;22.88;12.00;;;;;;;;;;5026746;28;20069;-78
2023/04/21 00:40:58;;;;;;;26.60;13.30;;;;;;;;;;5028413;28;20053;-77
2023/04/21 00:43:24;;;;;;;26.50;13.10;;;;;;;;;;5045712;28;20053;-77
2023/04/21 00:45:51;;;;;;;27.30;12.68;;;;;;;;;;5033215;28;20073;-78
2023/04/21 00:48:17;;;;;;;26.92;13.10;;;;;;;;;;5022619;28;20056;-78
2023/04/21 00:50:44;;;;;;;27.95;13.35;;;;;;;;;;5018100;28;20057;-78
2023/04/21 00:53:13;;;;;;;24.25;13.85;;;;;;;;;;5025618;28;20058;-78
2023/04/21 00:55:39;;;;;;;30.60;13.57;;;;;;;;;;5031998;28;20062;-77
2023/04/21 00:58:06;;;;;;;25.63;13.55;;;;;;;;;;5026232;28;20056;-77
2023/04/21 01:00:32;;;;;;;31.55;14.55;;;;;;;;;;5034129;28;20078;-78
2023/04/21 01:02:59;;;;;;;30.48;14.70;;;;;;;;;;5006055;28;20062;-77
2023/04/21 01:05:26;;;;;;;28.17;13.73;;;;;;;;;;5040262;28;20127;-78
2023/04/21 01:07:52;;;;;;;29.65;14.23;;;;;;;;;;5023326;28;20907;-77
2023/04/21 01:10:19;;;;;;;30.00;14.45;;;;;;;;;;5025448;28;20056;-78
2023/04/21 01:12:46;;;;;;;29.23;14.30;;;;;;;;;;5025214;28;20060;-77
2023/04/21 01:15:13;;;;;;;26.63;14.10;;;;;;;;;;5027447;28;20357;-77
2023/04/21 01:17:40;;;;;;;27.38;14.93;;;;;;;;;;5043452;28;20100;-77
2023/04/21 01:20:08;;;;;;;30.23;14.88;;;;;;;;;;5044982;28;20053;-78
2023/04/21 01:22:38;;;;;;;29.65;14.85;;;;;;;;;;5043783;28;20075;-78
2023/04/21 01:25:04;;;;;;;32.67;15.80;;;;;;;;;;5032588;28;20345;-78
2023/04/21 01:27:31;;;;;;;32.55;15.90;;;;;;;;;;5045624;28;20053;-79
2023/04/21 01:29:57;;;;;;;31.17;15.13;;;;;;;;;;5038299;28;20057;-78
2023/04/21 01:32:25;;;;;;;35.25;15.68;;;;;;;;;;5031199;28;20053;-79
2023/04/21 01:34:52;;;;;;;29.95;15.23;;;;;;;;;;5041366;28;20049;-78
2023/04/21 01:37:20;;;;;;;30.50;15.23;;;;;;;;;;5043600;28;20532;-78
2023/04/21 01:39:51;;;;;;;30.08;14.90;;;;;;;;;;5017775;28;20145;-79
2023/04/21 01:42:17;;;;;;;32.83;15.52;;;;;;;;;;5021887;28;20065;-78
2023/04/21 01:44:45;;;;;;;34.08;15.82;;;;;;;;;;5026632;28;21614;-79
2023/04/21 01:47:12;;;;;;;31.83;14.57;;;;;;;;;;5035688;28;20571;-78
2023/04/21 01:49:39;;;;;;;29.75;15.32;;;;;;;;;;5038074;28;20054;-78
2023/04/21 01:52:05;;;;;;;34.78;15.82;;;;;;;;;;5018780;28;20058;-79
2023/04/21 01:54:32;;;;;;;34.83;16.50;;;;;;;;;;5025238;28;20156;-78
2023/04/21 01:56:58;;;;;;;37.88;17.17;;;;;;;;;;5050841;28;20076;-78
2023/04/21 01:59:24;;;;;;;34.67;15.95;;;;;;;;;;5029076;28;20057;-78
2023/04/21 02:01:51;;;;;;;33.75;16.80;;;;;;;;;;5023283;28;20093;-78
2023/04/21 02:04:17;;;;;;;33.50;15.35;;;;;;;;;;5029828;28;20046;-78
2023/04/21 02:06:44;;;;;;;31.10;15.23;;;;;;;;;;5034189;28;20049;-78
2023/04/21 02:09:11;;;;;;;32.83;16.02;;;;;;;;;;5025662;28;20452;-78
2023/04/21 02:11:37;;;;;;;37.35;17.52;;;;;;;;;;5026213;28;20129;-78
2023/04/21 02:14:03;;;;;;;37.42;16.77;;;;;;;;;;5021313;28;20149;-78
2023/04/21 02:16:31;;;;;;;34.92;16.67;;;;;;;;;;5031142;28;20059;-78
2023/04/21 02:18:58;;;;;;;39.65;18.27;;;;;;;;;;5039429;28;20819;-78
2023/04/21 02:21:26;;;;;;;38.90;17.77;;;;;;;;;;5045450;28;20101;-78
2023/04/21 02:23:52;;;;;;;34.58;16.58;;;;;;;;;;5038721;28;20054;-78
2023/04/21 02:26:19;;;;;;;36.30;17.08;;;;;;;;;;5043394;28;20081;-78
2023/04/21 02:28:46;;;;;;;35.97;17.42;;;;;;;;;;5053140;28;20049;-77
2023/04/21 02:31:12;;;;;;;36.22;17.70;;;;;;;;;;5016488;28;20054;-78
2023/04/21 02:33:39;;;;;;;36.72;16.38;;;;;;;;;;5030729;28;20420;-78
2023/04/21 02:36:05;;;;;;;35.70;16.15;;;;;;;;;;5020419;28;20050;-78
2023/04/21 02:38:32;;;;;;;36.92;17.30;;;;;;;;;;5038171;28;20136;-78
2023/04/21 02:40:58;;;;;;;37.28;17.98;;;;;;;;;;5037200;28;20057;-78
2023/04/21 02:43:25;;;;;;;41.15;17.88;;;;;;;;;;5033136;28;20060;-78
2023/04/21 02:45:52;;;;;;;36.35;17.73;;;;;;;;;;5040168;28;20050;-78
2023/04/21 02:48:21;;;;;;;37.45;17.48;;;;;;;;;;5038663;28;20057;-77
2023/04/21 02:50:49;;;;;;;38.55;18.63;;;;;;;;;;5028248;28;20101;-78
2023/04/21 02:53:15;;;;;;;42.40;18.65;;;;;;;;;;5044391;28;20058;-78
2023/04/21 02:55:43;;;;;;;36.90;18.60;;;;;;;;;;5032019;28;20579;-77
2023/04/21 02:58:09;;;;;;;40.10;18.02;;;;;;;;;;5038038;28;20054;-77
2023/04/21 03:00:36;;;;;;;41.03;19.42;;;;;;;;;;5044050;28;20161;-78
2023/04/21 03:03:02;;;;;;;42.13;19.02;;;;;;;;;;5043036;28;20583;-77
2023/04/21 03:05:29;;;;;;;36.97;19.35;;;;;;;;;;5030385;28;20038;-77
2023/04/21 03:07:55;;;;;;;37.90;18.13;;;;;;;;;;5012463;28;20057;-78
2023/04/21 03:10:22;;;;;;;35.05;17.33;;;;;;;;;;5026967;28;20070;-78
2023/04/21 03:12:48;;;;;;;37.30;17.15;;;;;;;;;;5030966;28;20057;-77
2023/04/21 03:15:15;;;;;;;36.15;17.55;;;;;;;;;;5033792;28;20113;-78
2023/04/21 03:17:42;;;;;;;39.75;17.40;;;;;;;;;;5039249;28;20062;-77
2023/04/21 03:20:10;;;;;;;35.83;17.45;;;;;;;;;;5046447;28;20053;-77
2023/04/21 03:22:37;;;;;;;35.90;17.13;;;;;;;;;;5051156;28;20961;-78
2023/04/21 03:25:05;;;;;;;35.13;16.65;;;;;;;;;;5016853;28;20064;-78
2023/04/21 03:27:32;;;;;;;38.53;17.38;;;;;;;;;;5024231;28;20148;-78
2023/04/21 03:29:58;;;;;;;33.78;16.58;;;;;;;;;;5044836;28;20084;-76
2023/04/21 03:32:25;;;;;;;35.58;17.70;;;;;;;;;;5036102;28;20058;-77
2023/04/21 03:34:52;;;;;;;36.83;17.25;;;;;;;;;;5025148;28;20057;-78
2023/04/21 03:37:18;;;;;;;33.90;16.95;;;;;;;;;;5036953;28;20187;-78
2023/04/21 03:39:44;;;;;;;37.22;17.02;;;;;;;;;;5045576;28;20088;-78
2023/04/21 03:42:11;;;;;;;37.47;17.92;;;;;;;;;;5008420;28;20200;-77
2023/04/21 03:44:37;;;;;;;36.55;17.17;;;;;;;;;;5008349;28;20061;-76
2023/04/21 03:47:04;;;;;;;33.75;16.38;;;;;;;;;;5034019;28;20045;-77
2023/04/21 03:49:32;;;;;;;39.03;17.60;;;;;;;;;;5031702;28;20073;-79
2023/04/21 03:51:59;;;;;;;35.78;16.13;;;;;;;;;;5015805;28;20047;-78
2023/04/21 03:54:25;;;;;;;36.97;17.45;;;;;;;;;;5044230;28;20068;-78
2023/04/21 03:56:51;;;;;;;38.17;16.67;;;;;;;;;;5025934;28;20053;-78
2023/04/21 03:59:18;;;;;;;35.28;17.10;;;;;;;;;;5021810;28;20068;-78
2023/04/21 04:01:44;;;;;;;36.78;17.13;;;;;;;;;;5040351;28;20064;-78
2023/04/21 04:04:11;;;;;;;33.83;16.67;;;;;;;;;;5048084;28;20535;-79
2023/04/21 04:06:38;;;;;;;35.60;17.40;;;;;;;;;;5034242;28;20060;-79
2023/04/21 04:09:04;;;;;;;33.85;16.77;;;;;;;;;;5018869;28;20191;-78
2023/04/21 04:11:30;;;;;;;35.75;17.08;;;;;;;;;;5028889;28;20133;-80
2023/04/21 04:13:57;;;;;;;33.97;16.77;;;;;;;;;;5029411;28;20061;-79
2023/04/21 04:16:24;;;;;;;36.13;16.60;;;;;;;;;;5023365;28;20555;-79
2023/04/21 04:18:50;;;;;;;33.78;16.13;;;;;;;;;;5038480;28;20076;-79
2023/04/21 04:21:16;;;;;;;35.28;16.60;;;;;;;;;;5045327;28;20049;-79
2023/04/21 04:23:43;;;;;;;33.83;16.92;;;;;;;;;;5048904;28;20148;-79
2023/04/21 04:26:10;;;;;;;33.63;16.40;;;;;;;;;;5039386;28;20950;-79
2023/04/21 04:28:37;;;;;;;36.78;16.50;;;;;;;;;;5042166;28;20148;-79
2023/04/21 04:31:03;;;;;;;38.30;17.67;;;;;;;;;;5036026;28;20058;-79
2023/04/21 04:33:29;;;;;;;34.53;16.70;;;;;;;;;;5009595;28;20058;-80
2023/04/21 04:35:57;;;;;;;38.88;18.88;;;;;;;;;;5021061;28;20508;-79
2023/04/21 04:38:23;;;;;;;38.10;18.50;;;;;;;;;;5042748;28;20077;-80
2023/04/21 04:40:53;;;;;;;34.95;17.00;;;;;;;;;;5046426;28;20053;-79
2023/04/21 04:43:20;;;;;;;35.25;17.67;;;;;;;;;;5036836;28;20412;-80
2023/04/21 04:45:47;;;;;;;35.85;17.35;;;;;;;;;;5039134;28;20098;-78
2023/04/21 04:48:13;;;;;;;39.45;17.40;;;;;;;;;;5026665;28;20069;-79
2023/04/21 04:50:40;;;;;;;39.10;18.88;;;;;;;;;;5009196;28;20058;-80
2023/04/21 04:53:06;;;;;;;36.78;17.52;;;;;;;;;;5010103;28;20062;-79
2023/04/21 04:55:32;;;;;;;39.22;18.60;;;;;;;;;;5037267;28;20073;-78
2023/04/21 04:58:00;;;;;;;38.17;18.17;;;;;;;;;;5039394;28;20136;-78
2023/04/21 05:00:27;;;;;;;37.38;17.85;;;;;;;;;;5027065;28;20128;-78
2023/04/21 05:02:54;;;;;;;41.58;18.10;;;;;;;;;;5044752;28;20053;-78
2023/04/21 05:05:21;;;;;;;37.00;18.00;;;;;;;;;;5038464;28;20423;-79
2023/04/21 05:07:47;;;;;;;41.97;19.83;;;;;;;;;;5029377;28;20113;-79
2023/04/21 05:10:13;;;;;;;38.30;18.75;;;;;;;;;;5025613;28;20064;-78
2023/04/21 05:12:40;;;;;;;42.03;18.90;;;;;;;;;;5019897;28;20066;-78
2023/04/21 05:15:06;;;;;;;39.13;18.77;;;;;;;;;;5023133;28;20122;-79
2023/04/21 05:17:33;;;;;;;39.95;18.67;;;;;;;;;;5032759;28;20111;-79
2023/04/21 05:19:59;;;;;;;40.50;18.98;;;;;;;;;;5039393;28;21037;-80
2023/04/21 05:22:26;;;;;;;37.78;18.88;;;;;;;;;;5028680;28;20137;-79
2023/04/21 05:24:52;;;;;;;40.95;18.67;;;;;;;;;;5011967;28;20061;-79
2023/04/21 05:27:19;;;;;;;41.63;19.35;;;;;;;;;;5035178;28;20935;-78
2023/04/21 05:29:45;;;;;;;40.80;19.20;;;;;;;;;;5034482;28;20165;-79
2023/04/21 05:32:12;;;;;;;40.75;19.50;;;;;;;;;;5050806;28;20089;-79
2023/04/21 05:34:38;;;;;;;38.40;18.50;;;;;;;;;;5049706;28;20103;-80
2023/04/21 05:37:05;;;;;;;44.33;19.73;;;;;;;;;;5038960;28;20140;-79
2023/04/21 05:39:31;;;;;;;41.65;20.60;;;;;;;;;;5024242;28;20064;-79
2023/04/21 05:41:57;;;;;;;41.13;20.73;;;;;;;;;;5011441;28;20051;-79
2023/04/21 05:44:24;;;;;;;40.60;19.85;;;;;;;;;;5021568;28;20062;-79
2023/04/21 05:46:50;;;;;;;42.95;20.25;;;;;;;;;;5042118;28;20087;-80
2023/04/21 05:49:17;;;;;;;45.13;19.42;;;;;;;;;;5038501;28;20036;-80
2023/04/21 05:51:43;;;;;;;48.08;20.77;;;;;;;;;;5050576;28;20049;-80
2023/04/21 05:54:09;;;;;;;42.47;20.38;;;;;;;;;;5040767;28;20045;-79
2023/04/21 05:56:36;;;;;;;47.63;22.08;;;;;;;;;;5021822;28;20061;-79
2023/04/21 05:59:05;;;;;;;43.45;21.25;;;;;;;;;;5025174;28;20058;-79
2023/04/21 06:01:32;;;;;;;46.75;22.65;;;;;;;;;;5050450;28;20081;-80
2023/04/21 06:03:58;;;;;;;43.17;22.02;;;;;;;;;;5044983;28;20041;-79
2023/04/21 06:06:26;;;;;;;44.55;21.05;;;;;;;;;;5046915;28;20061;-79
2023/04/21 06:08:53;;;;;;;44.47;22.50;;;;;;;;;;5043229;28;20089;-79
2023/04/21 06:11:20;;;;;;;43.83;21.75;;;;;;;;;;5042763;28;20622;-79
2023/04/21 06:13:46;;;;;;;44.55;21.08;;;;;;;;;;5021729;28;20058;-79
2023/04/21 06:16:13;;;;;;;45.70;21.13;;;;;;;;;;5009710;28;20145;-80
2023/04/21 06:18:39;;;;;;;42.72;21.50;;;;;;;;;;5015527;28;20055;-79
2023/04/21 06:21:06;;;;;;;42.40;21.52;;;;;;;;;;5045653;28;20509;-79
2023/04/21 06:23:32;;;;;;;43.58;21.83;;;;;;;;;;5032054;28;20085;-80
2023/04/21 06:26:00;;;;;;;45.63;22.08;;;;;;;;;;5030469;28;20088;-79
2023/04/21 06:28:28;;;;;;;45.95;22.40;;;;;;;;;;5025975;28;20058;-79
2023/04/21 06:30:54;;;;;;;42.90;22.80;;;;;;;;;;5041652;28;20065;-79
2023/04/21 06:33:21;;;;;;;48.13;22.83;;;;;;;;;;5028955;28;20891;-80
2023/04/21 06:35:47;;;;;;;48.13;22.38;;;;;;;;;;5021924;28;20058;-79
2023/04/21 06:38:14;;;;;;;44.42;21.88;;;;;;;;;;5030156;28;20601;-79
2023/04/21 06:40:40;;;;;;;45.00;22.50;;;;;;;;;;5038349;28;20057;-80
2023/04/21 06:43:06;;;;;;;43.03;22.52;;;;;;;;;;5041083;28;20057;-78
2023/04/21 06:45:33;;;;;;;43.88;22.40;;;;;;;;;;5037439;28;20072;-79
2023/04/21 06:47:59;;;;;;;43.20;21.58;;;;;;;;;;5025144;28;20054;-80
2023/04/21 06:50:25;;;;;;;44.08;22.45;;;;;;;;;;5010522;28;20898;-81
2023/04/21 06:52:52;;;;;;;43.60;22.58;;;;;;;;;;5024244;28;20080;-81
2023/04/21 06:55:18;;;;;;;42.55;22.00;;;;;;;;;;5046838;28;20041;-81
2023/04/21 06:57:44;;;;;;;43.00;21.98;;;;;;;;;;5041884;28;20046;-80
2023/04/21 07:00:12;;;;;;;38.58;21.58;;;;;;;;;;5036030;28;20054;-80
2023/04/21 07:02:42;;;;;;;37.55;20.25;;;;;;;;;;5019189;28;20177;-81
2023/04/21 07:05:08;;;;;;;40.17;21.45;;;;;;;;;;5034301;28;20115;-81
2023/04/21 07:07:34;;;;;;;45.88;22.33;;;;;;;;;;5024019;28;20135;-81
2023/04/21 07:10:01;;;;;;;38.97;19.88;;;;;;;;;;5008664;28;20161;-80
2023/04/21 07:12:27;;;;;;;37.42;20.98;;;;;;;;;;5034762;28;20065;-81
2023/04/21 07:14:53;;;;;;;37.72;21.10;;;;;;;;;;5033721;28;20053;-81
2023/04/21 07:17:20;;;;;;;37.17;20.75;;;;;;;;;;5048660;28;20454;-82
2023/04/21 07:19:46;;;;;;;35.88;20.38;;;;;;;;;;5023835;28;20051;-81
2023/04/21 07:22:12;;;;;;;36.42;19.75;;;;;;;;;;5012229;28;20089;-81
2023/04/21 07:24:39;;;;;;;37.42;21.17;;;;;;;;;;5015949;28;20041;-81
2023/04/21 07:27:05;;;;;;;38.35;21.35;;;;;;;;;;5046784;28;20597;-81
2023/04/21 07:29:32;;;;;;;40.45;22.00;;;;;;;;;;5047341;28;20164;-80
2023/04/21 07:31:58;;;;;;;37.78;21.38;;;;;;;;;;5029817;28;20068;-81
2023/04/21 07:34:24;;;;;;;35.75;21.20;;;;;;;;;;5021083;28;20140;-81
2023/04/21 07:36:51;;;;;;;42.13;22.17;;;;;;;;;;5020360;28;20053;-81
2023/04/21 07:39:17;;;;;;;38.50;21.45;;;;;;;;;;5013369;28;20101;-80
2023/04/21 07:41:45;;;;;;;37.67;21.10;;;;;;;;;;5015885;28;20054;-81
2023/04/21 07:44:11;;;;;;;39.65;21.33;;;;;;;;;;5011766;28;20058;-81
2023/04/21 07:46:37;;;;;;;37.28;21.30;;;;;;;;;;5015003;28;20049;-81
2023/04/21 07:49:04;;;;;;;33.22;19.00;;;;;;;;;;5015433;28;20050;-80
2023/04/21 07:51:31;;;;;;;34.20;19.67;;;;;;;;;;5007387;28;20226;-80
2023/04/21 07:53:57;;;;;;;34.20;20.20;;;;;;;;;;5026161;28;20061;-80
2023/04/21 07:56:27;;;;;;;37.22;20.83;;;;;;;;;;5026859;28;20053;-80
2023/04/21 07:58:53;;;;;;;39.17;21.55;;;;;;;;;;5041574;28;20504;-81
2023/04/21 08:01:20;;;;;;;35.60;19.38;;;;;;;;;;5027428;28;20586;-80
2023/04/21 08:03:46;;;;;;;37.83;20.98;;;;;;;;;;5021003;28;20140;-80
2023/04/21 08:06:13;;;;;;;35.88;21.33;;;;;;;;;;5019815;28;20116;-80
2023/04/21 08:08:40;;;;;;;38.30;20.60;;;;;;;;;;5017227;28;20060;-78
2023/04/21 08:11:06;;;;;;;33.13;20.27;;;;;;;;;;5023250;28;20521;-80
2023/04/21 08:13:36;;;;;;;33.58;20.55;;;;;;;;;;5008817;28;20784;-80
2023/04/21 08:16:02;;;;;;;33.92;19.58;;;;;;;;;;5012395;28;20178;-80
2023/04/21 08:18:30;;;;;;;35.05;19.75;;;;;;;;;;5011987;28;20557;-80
2023/04/21 08:20:56;;;;;;;31.10;18.75;;;;;;;;;;5022680;28;20123;-80
2023/04/21 08:23:23;;;;;;;32.97;18.35;;;;;;;;;;5012826;28;20065;-81
2023/04/21 08:25:49;;;;;;;30.17;18.25;;;;;;;;;;5014711;28;20073;-80
2023/04/21 08:28:16;;;;;;;36.17;20.85;;;;;;;;;;5012433;28;20633;-81
2023/04/21 08:30:42;;;;;;;31.50;18.83;;;;;;;;;;5021674;28;20053;-81
2023/04/21 08:33:12;;;;;;;33.40;20.20;;;;;;;;;;5028977;28;20477;-81
2023/04/21 08:35:40;;;;;;;33.70;20.25;;;;;;;;;;5024904;28;20576;-82
2023/04/21 08:38:26;;;;;;;33.65;20.10;;;;;;;;;;5016748;28;20065;-81
2023/04/21 08:40:53;;;;;;;33.55;19.42;;;;;;;;;;5014894;28;20141;-81
2023/04/21 08:43:19;;;;;;;32.42;18.50;;;;;;;;;;5025365;28;20062;-81
2023/04/21 08:45:46;;;;;;;32.42;19.52;;;;;;;;;;5024920;28;20057;-81
2023/04/21 08:48:17;;;;;;;32.38;19.35;;;;;;;;;;5009371;28;20061;-82
2023/04/21 08:50:45;;;;;;;31.83;19.77;;;;;;;;;;5032546;28;20058;-81
2023/04/21 08:53:12;;;;;;;37.70;20.60;;;;;;;;;;5005767;28;20058;-81
2023/04/21 08:55:40;;;;;;;32.80;19.80;;;;;;;;;;5023411;28;20525;-81
2023/04/21 08:58:08;;;;;;;34.90;20.73;;;;;;;;;;5022167;28;20082;-81
2023/04/21 09:00:35;;;;;;;30.73;19.45;;;;;;;;;;5034038;28;20049;-81
2023/04/21 09:03:02;;;;;;;30.52;19.00;;;;;;;;;;5023327;28;20548;-81
2023/04/21 09:05:36;;;;;;;32.83;18.75;;;;;;;;;;5007135;28;20806;-81
2023/04/21 09:08:12;;;;;;;31.77;19.73;;;;;;;;;;5018137;28;20054;-81
2023/04/21 09:10:47;;;;;;;31.80;18.92;;;;;;;;;;5024252;28;20863;-81
2023/04/21 09:13:13;;;;;;;30.33;18.33;;;;;;;;;;5020378;28;20058;-81
2023/04/21 09:15:44;;;;;;;32.38;19.73;;;;;;;;;;5025286;28;20077;-81
2023/04/21 09:18:18;;;;;;;30.98;18.45;;;;;;;;;;5016696;28;20806;-81
2023/04/21 09:20:45;;;;;;;28.88;18.38;;;;;;;;;;5017567;28;20141;-81
2023/04/21 09:23:12;;;;;;;29.30;19.17;;;;;;;;;;5019924;28;20137;-81
2023/04/21 09:25:39;;;;;;;32.20;18.40;;;;;;;;;;5025034;28;20496;-81
2023/04/21 09:28:09;;;;;;;30.45;19.02;;;;;;;;;;5028633;28;20076;-77
2023/04/21 09:30:36;;;;;;;30.42;18.10;;;;;;;;;;5015190;28;20058;-79
2023/04/21 09:33:03;;;;;;;29.85;19.35;;;;;;;;;;5026265;28;20061;-79
2023/04/21 09:35:46;;;;;;;31.33;17.85;;;;;;;;;;5034793;28;20492;-80
2023/04/21 09:38:13;;;;;;;29.15;18.02;;;;;;;;;;5027434;28;20061;-80
2023/04/21 09:40:39;;;;;;;29.00;18.10;;;;;;;;;;5023723;28;20053;-80
2023/04/21 09:43:06;;;;;;;27.55;17.58;;;;;;;;;;5024306;28;20064;-80
2023/04/21 09:45:36;;;;;;;27.05;16.60;;;;;;;;;;5019158;28;20187;-80
2023/04/21 09:48:07;;;;;;;32.13;18.15;;;;;;;;;;5017276;28;20154;-80
2023/04/21 09:50:34;;;;;;;27.45;17.15;;;;;;;;;;5024543;28;20060;-80
2023/04/21 09:53:23;;;;;;;31.25;16.95;;;;;;;;;;5022172;28;20046;-80
2023/04/21 09:55:50;;;;;;;27.70;17.27;;;;;;;;;;5020535;28;20050;-79
2023/04/21 09:58:19;;;;;;;25.52;15.75;;;;;;;;;;5016091;28;20061;-80
2023/04/21 10:00:45;;;;;;;25.63;15.93;;;;;;;;;;5021001;28;20112;-80
2023/04/21 10:03:13;;;;;;;25.70;16.23;;;;;;;;;;5039515;28;20062;-80
2023/04/21 10:05:40;;;;;;;24.83;15.32;;;;;;;;;;5027555;28;20050;-80
2023/04/21 10:08:10;;;;;;;27.60;17.00;;;;;;;;;;5023244;28;20156;-80
2023/04/21 10:10:37;;;;;;;27.45;16.90;;;;;;;;;;5027308;28;20062;-80
2023/04/21 10:13:04;;;;;;;26.35;17.08;;;;;;;;;;5039037;28;20111;-79
2023/04/21 10:15:31;;;;;;;25.17;15.88;;;;;;;;;;5027083;28;20157;-80
2023/04/21 10:18:16;;;;;;;25.15;16.75;;;;;;;;;;5030583;28;20067;-79
2023/04/21 10:21:09;;;;;;;26.33;17.42;;;;;;;;;;5032371;28;20137;-79
2023/04/21 10:23:43;;;;;;;25.52;16.58;;;;;;;;;;5025395;28;20042;-79
2023/04/21 10:26:36;;;;;;;25.90;16.90;;;;;;;;;;5028772;28;20534;-79
2023/04/21 10:29:08;;;;;;;25.27;16.30;;;;;;;;;;5033295;28;20552;-79
2023/04/21 10:31:36;;;;;;;24.48;16.40;;;;;;;;;;5022179;28;20513;-79
2023/04/21 10:34:09;;;;;;;25.05;16.48;;;;;;;;;;5024932;28;20141;-79
2023/04/21 10:36:47;;;;;;;26.33;16.50;;;;;;;;;;5023406;28;20054;-78
2023/04/21 10:39:30;;;;;;;26.15;17.45;;;;;;;;;;5025705;28;20064;-79
2023/04/21 10:41:57;;;;;;;24.58;16.90;;;;;;;;;;5024792;28;20491;-78
2023/04/21 10:44:24;;;;;;;27.85;17.25;;;;;;;;;;5024608;28;20117;-79
2023/04/21 10:46:51;;;;;;;27.27;16.60;;;;;;;;;;5017107;28;20133;-78
2023/04/21 10:49:25;;;;;;;26.23;16.77;;;;;;;;;;5024679;28;20152;-79
2023/04/21 10:52:04;;;;;;;27.98;16.40;;;;;;;;;;5040523;28;20067;-79
2023/04/21 10:54:46;;;;;;;28.80;18.02;;;;;;;;;;5015811;28;20057;-79
2023/04/21 10:57:14;;;;;;;30.20;17.63;;;;;;;;;;5009955;28;20078;-79
2023/04/21 10:59:41;;;;;;;23.45;16.60;;;;;;;;;;5014665;28;20053;-78
2023/04/21 11:02:12;;;;;;;25.83;16.05;;;;;;;;;;5017714;28;20073;-79
2023/04/21 11:04:43;;;;;;;26.48;17.20;;;;;;;;;;5010312;28;20057;-79
2023/04/21 11:07:11;;;;;;;27.00;17.52;;;;;;;;;;5021137;28;21071;-80
2023/04/21 11:09:39;;;;;;;26.58;17.17;;;;;;;;;;5017046;28;20065;-81
2023/04/21 11:12:09;;;;;;;25.85;16.35;;;;;;;;;;5048026;28;20061;-81
2023/04/21 11:14:36;;;;;;;28.73;16.80;;;;;;;;;;5023009;28;20075;-80
2023/04/21 11:17:03;;;;;;;26.67;17.13;;;;;;;;;;5025753;28;20135;-80
2023/04/21 11:19:33;;;;;;;28.52;17.40;;;;;;;;;;5023552;28;20062;-80
2023/04/21 11:21:59;;;;;;;26.33;17.23;;;;;;;;;;5014338;28;20821;-80
2023/04/21 11:24:26;;;;;;;28.20;17.40;;;;;;;;;;5032607;28;21065;-80
2023/04/21 11:26:52;;;;;;;28.20;17.13;;;;;;;;;;5017354;28;20062;-80
2023/04/21 11:29:18;;;;;;;24.33;16.83;;;;;;;;;;5029897;28;20056;-80
2023/04/21 11:31:47;;;;;;;25.17;16.42;;;;;;;;;;5015384;28;20054;-80
2023/04/21 11:34:15;;;;;;;25.80;16.42;;;;;;;;;;5022465;28;20054;-80
2023/04/21 11:36:42;;;;;;;25.92;16.02;;;;;;;;;;5020028;28;20077;-80
2023/04/21 11:39:09;;;;;;;24.88;15.25;;;;;;;;;;5035941;28;20053;-80
2023/04/21 11:41:38;;;;;;;25.08;15.98;;;;;;;;;;5025900;28;20417;-80
2023/04/21 11:44:05;;;;;;;23.75;16.45;;;;;;;;;;5026840;28;20056;-80
2023/04/21 11:46:32;;;;;;;26.65;16.40;;;;;;;;;;5024890;28;20061;-80
2023/04/21 11:49:06;;;;;;;27.88;16.70;;;;;;;;;;5018565;28;20054;-79
2023/04/21 11:51:33;;;;;;;27.08;16.38;;;;;;;;;;5033904;28;20092;-79
2023/04/21 11:54:00;;;;;;;24.38;15.85;;;;;;;;;;5013597;28;20587;-79
2023/04/21 11:56:27;;;;;;;25.60;15.77;;;;;;;;;;5018787;28;20161;-79
2023/04/21 11:58:54;;;;;;;22.92;14.95;;;;;;;;;;5020721;28;20045;-80
2023/04/21 12:01:21;;;;;;;19.00;13.70;;;;;;;;;;5024252;28;20050;-80
2023/04/21 12:03:54;;;;;;;22.52;14.32;;;;;;;;;;5022071;28;20061;-80
2023/04/21 12:06:27;;;;;;;20.33;14.05;;;;;;;;;;5032509;28;20053;-80
2023/04/21 12:08:55;;;;;;;21.50;13.48;;;;;;;;;;5029511;28;20957;-80
2023/04/21 12:11:26;;;;;;;21.25;14.02;;;;;;;;;;5013321;28;20058;-81
2023/04/21 12:13:52;;;;;;;21.42;12.93;;;;;;;;;;5021419;28;20092;-79
2023/04/21 12:16:19;;;;;;;20.35;13.80;;;;;;;;;;5010771;28;20078;-78
2023/04/21 12:18:47;;;;;;;20.15;13.70;;;;;;;;;;5031448;28;20111;-78
2023/04/21 12:21:14;;;;;;;20.35;13.43;;;;;;;;;;5015437;28;20064;-78
2023/04/21 12:23:40;;;;;;;21.10;13.82;;;;;;;;;;5017573;28;20056;-78
2023/04/21 12:26:07;;;;;;;23.08;14.88;;;;;;;;;;5024513;28;20054;-78
2023/04/21 12:28:33;;;;;;;22.42;14.15;;;;;;;;;;5024268;28;20053;-78
2023/04/21 12:31:03;;;;;;;24.85;14.13;;;;;;;;;;5026773;28;20160;-78
2023/04/21 12:33:29;;;;;;;21.02;13.32;;;;;;;;;;5028045;28;20054;-78
2023/04/21 12:35:56;;;;;;;21.77;13.95;;;;;;;;;;5031253;28;20069;-78
2023/04/21 12:38:22;;;;;;;20.50;13.60;;;;;;;;;;5022009;28;20064;-78
2023/04/21 12:40:48;;;;;;;20.63;12.85;;;;;;;;;;5013509;28;20058;-78
2023/04/21 12:43:15;;;;;;;20.80;13.57;;;;;;;;;;5020896;28;20038;-78
2023/04/21 12:45:41;;;;;;;24.05;16.05;;;;;;;;;;5018430;28;20172;-78
2023/04/21 12:48:08;;;;;;;22.83;14.73;;;;;;;;;;5019907;28;20051;-78
2023/04/21 12:50:37;;;;;;;22.55;14.27;;;;;;;;;;5028193;28;20057;-78
2023/04/21 12:53:03;;;;;;;23.33;15.20;;;;;;;;;;5027162;28;20085;-78
2023/04/21 12:55:30;;;;;;;23.58;15.00;;;;;;;;;;5019072;28;20567;-78
2023/04/21 12:57:56;;;;;;;24.63;15.85;;;;;;;;;;5023751;28;20859;-77
2023/04/21 13:00:23;;;;;;;25.00;16.20;;;;;;;;;;5015130;28;20060;-79
2023/04/21 13:02:49;;;;;;;26.70;16.90;;;;;;;;;;5025639;28;21847;-77
2023/04/21 13:05:16;;;;;;;25.17;16.45;;;;;;;;;;5030357;28;20061;-78
2023/04/21 13:07:43;;;;;;;27.80;16.48;;;;;;;;;;5013685;28;20547;-78
2023/04/21 13:10:10;;;;;;;25.23;15.77;;;;;;;;;;5023848;28;20524;-78
2023/04/21 13:12:36;;;;;;;27.00;17.00;;;;;;;;;;5017940;28;20062;-78
2023/04/21 13:15:03;;;;;;;27.65;17.23;;;;;;;;;;5012425;28;20492;-78
2023/04/21 13:17:29;;;;;;;27.38;16.75;;;;;;;;;;5023403;28;20068;-77
2023/04/21 13:19:56;;;;;;;31.00;17.75;;;;;;;;;;5020574;28;20530;-77
2023/04/21 13:22:22;;;;;;;27.25;16.50;;;;;;;;;;5016269;28;21101;-78
2023/04/21 13:24:49;;;;;;;26.48;16.27;;;;;;;;;;5043459;28;20085;-78
2023/04/21 13:27:15;;;;;;;25.58;16.45;;;;;;;;;;5041153;28;20058;-78
2023/04/21 13:29:42;;;;;;;27.23;17.17;;;;;;;;;;5036673;28;20054;-78
2023/04/21 13:32:08;;;;;;;26.17;16.63;;;;;;;;;;5016896;28;20063;-78
2023/04/21 13:34:35;;;;;;;28.40;17.02;;;;;;;;;;5015128;28;20152;-77
2023/04/21 13:37:02;;;;;;;28.88;16.83;;;;;;;;;;5020036;28;20066;-77
2023/04/21 13:39:28;;;;;;;26.02;17.05;;;;;;;;;;5026889;28;20057;-78
2023/04/21 13:41:55;;;;;;;31.75;18.08;;;;;;;;;;5030025;28;20068;-77
2023/04/21 13:44:22;;;;;;;28.15;16.70;;;;;;;;;;5014137;28;20152;-78
2023/04/21 13:46:50;;;;;;;27.88;18.05;;;;;;;;;;5010449;28;20499;-78
2023/04/21 13:49:17;;;;;;;24.35;16.20;;;;;;;;;;5016925;28;20975;-77
2023/04/21 13:51:44;;;;;;;29.50;17.05;;;;;;;;;;5026000;28;20136;-78
2023/04/21 13:54:10;;;;;;;27.20;16.80;;;;;;;;;;5022997;28;20061;-78
2023/04/21 13:56:37;;;;;;;26.92;17.15;;;;;;;;;;5038954;28;20058;-78
2023/04/21 13:59:03;;;;;;;28.48;17.60;;;;;;;;;;5027288;28;20058;-77
2023/04/21 14:01:29;;;;;;;26.55;16.67;;;;;;;;;;5031007;28;20053;-79
2023/04/21 14:03:56;;;;;;;25.95;15.88;;;;;;;;;;5025279;28;20065;-78
2023/04/21 14:06:23;;;;;;;23.73;14.48;;;;;;;;;;5019899;28;20606;-78
2023/04/21 14:08:49;;;;;;;24.65;15.45;;;;;;;;;;5016057;28;20055;-78
2023/04/21 14:11:16;;;;;;;22.75;13.60;;;;;;;;;;5023616;28;20273;-78
2023/04/21 14:13:42;;;;;;;22.10;14.40;;;;;;;;;;5041840;28;20053;-78
2023/04/21 14:16:28;;;;;;;24.10;14.98;;;;;;;;;;5034602;28;20057;-78
2023/04/21 14:18:55;;;;;;;22.95;14.73;;;;;;;;;;5033702;28;20062;-78